sensor_id;sensor_type;location;lat;lon;timestamp;P1;durP1;ratioP1;P2;durP2;ratioP2
77038;SDS011;65970;50.476;4.840;2023-08-17T00:01:21;3.08;;;2.33;;
77038;SDS011;65970;50.476;4.840;2023-08-17T00:06:22;4.40;;;2.53;;
77038;SDS011;65970;50.476;4.840;2023-08-17T00:11:22;4.28;;;2.17;;
77038;SDS011;65970;50.476;4.840;2023-08-17T00:16:23;3.05;;;2.50;;
77038;SDS011;65970;50.476;4.840;2023-08-17T00:21:23;2.80;;;2.30;;
77038;SDS011;65970;50.476;4.840;2023-08-17T00:26:24;5.82;;;2.15;;
77038;SDS011;65970;50.476;4.840;2023-08-17T00:31:24;3.53;;;2.28;;
77038;SDS011;65970;50.476;4.840;2023-08-17T00:36:25;3.60;;;2.05;;
77038;SDS011;65970;50.476;4.840;2023-08-17T00:41:26;3.85;;;2.42;;
77038;SDS011;65970;50.476;4.840;2023-08-17T00:46:26;2.35;;;2.15;;
77038;SDS011;65970;50.476;4.840;2023-08-17T00:51:27;4.82;;;1.85;;
77038;SDS011;65970;50.476;4.840;2023-08-17T00:56:28;2.70;;;2.20;;
77038;SDS011;65970;50.476;4.840;2023-08-17T01:01:29;5.55;;;2.17;;
77038;SDS011;65970;50.476;4.840;2023-08-17T01:06:30;8.45;;;2.50;;
77038;SDS011;65970;50.476;4.840;2023-08-17T01:16:56;2.80;;;2.22;;
77038;SDS011;65970;50.476;4.840;2023-08-17T01:22:03;4.30;;;2.03;;
77038;SDS011;65970;50.476;4.840;2023-08-17T01:27:05;4.00;;;1.80;;
77038;SDS011;65970;50.476;4.840;2023-08-17T01:37:15;4.82;;;2.38;;
77038;SDS011;65970;50.476;4.840;2023-08-17T01:42:20;3.25;;;2.03;;
77038;SDS011;65970;50.476;4.840;2023-08-17T01:47:22;2.67;;;2.00;;
77038;SDS011;65970;50.476;4.840;2023-08-17T01:52:24;3.42;;;2.35;;
77038;SDS011;65970;50.476;4.840;2023-08-17T01:57:28;3.78;;;2.53;;
77038;SDS011;65970;50.476;4.840;2023-08-17T02:02:29;2.60;;;2.30;;
77038;SDS011;65970;50.476;4.840;2023-08-17T02:07:30;2.40;;;2.22;;
77038;SDS011;65970;50.476;4.840;2023-08-17T02:12:30;5.10;;;2.80;;
77038;SDS011;65970;50.476;4.840;2023-08-17T02:17:31;3.08;;;2.58;;
77038;SDS011;65970;50.476;4.840;2023-08-17T02:22:31;3.15;;;2.30;;
77038;SDS011;65970;50.476;4.840;2023-08-17T02:27:32;3.90;;;2.25;;
77038;SDS011;65970;50.476;4.840;2023-08-17T02:32:32;3.67;;;2.25;;
77038;SDS011;65970;50.476;4.840;2023-08-17T02:37:33;3.90;;;2.22;;
77038;SDS011;65970;50.476;4.840;2023-08-17T02:42:33;3.05;;;2.75;;
77038;SDS011;65970;50.476;4.840;2023-08-17T02:47:34;5.35;;;2.60;;
77038;SDS011;65970;50.476;4.840;2023-08-17T02:52:34;4.72;;;2.25;;
77038;SDS011;65970;50.476;4.840;2023-08-17T02:57:35;2.30;;;2.10;;
77038;SDS011;65970;50.476;4.840;2023-08-17T03:02:35;4.32;;;2.25;;
77038;SDS011;65970;50.476;4.840;2023-08-17T03:07:36;2.78;;;2.17;;
77038;SDS011;65970;50.476;4.840;2023-08-17T03:12:37;4.10;;;2.45;;
77038;SDS011;65970;50.476;4.840;2023-08-17T03:17:38;2.20;;;2.00;;
77038;SDS011;65970;50.476;4.840;2023-08-17T03:22:38;3.80;;;2.60;;
77038;SDS011;65970;50.476;4.840;2023-08-17T03:27:39;3.65;;;2.50;;
77038;SDS011;65970;50.476;4.840;2023-08-17T03:32:40;3.38;;;2.20;;
77038;SDS011;65970;50.476;4.840;2023-08-17T03:37:40;2.83;;;2.30;;
77038;SDS011;65970;50.476;4.840;2023-08-17T03:42:41;3.63;;;2.72;;
77038;SDS011;65970;50.476;4.840;2023-08-17T03:47:41;3.00;;;2.25;;
77038;SDS011;65970;50.476;4.840;2023-08-17T03:52:42;2.10;;;1.90;;
77038;SDS011;65970;50.476;4.840;2023-08-17T03:57:42;3.47;;;2.30;;
77038;SDS011;65970;50.476;4.840;2023-08-17T04:02:43;5.15;;;2.25;;
77038;SDS011;65970;50.476;4.840;2023-08-17T04:07:43;3.88;;;2.38;;
77038;SDS011;65970;50.476;4.840;2023-08-17T04:12:44;4.75;;;2.78;;
77038;SDS011;65970;50.476;4.840;2023-08-17T04:17:44;2.20;;;1.98;;
77038;SDS011;65970;50.476;4.840;2023-08-17T04:22:45;3.08;;;2.08;;
77038;SDS011;65970;50.476;4.840;2023-08-17T04:27:46;4.15;;;2.58;;
77038;SDS011;65970;50.476;4.840;2023-08-17T04:32:46;3.50;;;2.55;;
77038;SDS011;65970;50.476;4.840;2023-08-17T04:37:47;4.60;;;1.88;;
77038;SDS011;65970;50.476;4.840;2023-08-17T04:42:47;2.88;;;1.88;;
77038;SDS011;65970;50.476;4.840;2023-08-17T04:47:48;3.50;;;1.75;;
77038;SDS011;65970;50.476;4.840;2023-08-17T04:52:49;3.10;;;2.17;;
77038;SDS011;65970;50.476;4.840;2023-08-17T04:57:49;4.10;;;2.30;;
77038;SDS011;65970;50.476;4.840;2023-08-17T05:02:50;3.50;;;2.17;;
77038;SDS011;65970;50.476;4.840;2023-08-17T05:07:51;4.13;;;2.20;;
77038;SDS011;65970;50.476;4.840;2023-08-17T05:12:52;3.20;;;2.20;;
77038;SDS011;65970;50.476;4.840;2023-08-17T05:17:53;4.43;;;1.98;;
77038;SDS011;65970;50.476;4.840;2023-08-17T05:22:53;3.05;;;2.10;;
77038;SDS011;65970;50.476;4.840;2023-08-17T05:27:54;4.95;;;1.95;;
77038;SDS011;65970;50.476;4.840;2023-08-17T05:32:54;4.90;;;1.95;;
77038;SDS011;65970;50.476;4.840;2023-08-17T05:37:55;4.15;;;2.30;;
77038;SDS011;65970;50.476;4.840;2023-08-17T05:42:56;4.25;;;1.98;;
77038;SDS011;65970;50.476;4.840;2023-08-17T05:47:56;2.22;;;2.03;;
77038;SDS011;65970;50.476;4.840;2023-08-17T05:52:57;6.00;;;2.28;;
77038;SDS011;65970;50.476;4.840;2023-08-17T05:57:57;4.10;;;2.17;;
77038;SDS011;65970;50.476;4.840;2023-08-17T06:02:58;2.10;;;2.00;;
77038;SDS011;65970;50.476;4.840;2023-08-17T06:07:59;3.08;;;2.30;;
77038;SDS011;65970;50.476;4.840;2023-08-17T06:12:59;3.92;;;2.47;;
77038;SDS011;65970;50.476;4.840;2023-08-17T06:18:00;3.63;;;2.50;;
77038;SDS011;65970;50.476;4.840;2023-08-17T06:23:00;5.00;;;2.40;;
77038;SDS011;65970;50.476;4.840;2023-08-17T06:28:01;6.35;;;2.58;;
77038;SDS011;65970;50.476;4.840;2023-08-17T06:33:02;4.03;;;2.67;;
77038;SDS011;65970;50.476;4.840;2023-08-17T06:38:03;4.55;;;2.50;;
77038;SDS011;65970;50.476;4.840;2023-08-17T06:43:03;5.60;;;3.35;;
77038;SDS011;65970;50.476;4.840;2023-08-17T06:48:04;5.80;;;2.65;;
77038;SDS011;65970;50.476;4.840;2023-08-17T06:53:05;5.45;;;3.03;;
77038;SDS011;65970;50.476;4.840;2023-08-17T06:58:05;6.45;;;2.72;;
77038;SDS011;65970;50.476;4.840;2023-08-17T07:03:06;8.05;;;4.32;;
77038;SDS011;65970;50.476;4.840;2023-08-17T07:08:07;7.63;;;3.33;;
77038;SDS011;65970;50.476;4.840;2023-08-17T07:13:07;10.60;;;3.22;;
77038;SDS011;65970;50.476;4.840;2023-08-17T07:18:08;8.98;;;3.83;;
77038;SDS011;65970;50.476;4.840;2023-08-17T07:23:08;7.03;;;4.28;;
77038;SDS011;65970;50.476;4.840;2023-08-17T07:28:11;6.78;;;3.88;;
77038;SDS011;65970;50.476;4.840;2023-08-17T07:33:12;6.88;;;4.65;;
77038;SDS011;65970;50.476;4.840;2023-08-17T07:38:12;10.90;;;7.20;;
77038;SDS011;65970;50.476;4.840;2023-08-17T07:43:13;10.07;;;6.55;;
77038;SDS011;65970;50.476;4.840;2023-08-17T07:48:13;11.80;;;7.07;;
77038;SDS011;65970;50.476;4.840;2023-08-17T07:53:14;18.90;;;10.15;;
77038;SDS011;65970;50.476;4.840;2023-08-17T07:58:14;18.67;;;10.15;;
77038;SDS011;65970;50.476;4.840;2023-08-17T08:03:15;15.45;;;9.73;;
77038;SDS011;65970;50.476;4.840;2023-08-17T08:08:15;22.38;;;9.48;;
77038;SDS011;65970;50.476;4.840;2023-08-17T08:13:16;14.75;;;10.00;;
77038;SDS011;65970;50.476;4.840;2023-08-17T08:18:17;14.68;;;9.23;;
77038;SDS011;65970;50.476;4.840;2023-08-17T08:23:17;17.10;;;9.88;;
77038;SDS011;65970;50.476;4.840;2023-08-17T08:28:18;14.48;;;9.85;;
77038;SDS011;65970;50.476;4.840;2023-08-17T08:33:18;17.67;;;11.85;;
77038;SDS011;65970;50.476;4.840;2023-08-17T08:38:19;17.90;;;10.85;;
77038;SDS011;65970;50.476;4.840;2023-08-17T08:43:19;14.95;;;10.20;;
77038;SDS011;65970;50.476;4.840;2023-08-17T08:48:20;17.27;;;11.63;;
77038;SDS011;65970;50.476;4.840;2023-08-17T08:53:32;22.20;;;10.80;;
77038;SDS011;65970;50.476;4.840;2023-08-17T08:58:38;17.73;;;10.60;;
77038;SDS011;65970;50.476;4.840;2023-08-17T09:03:41;21.05;;;11.93;;
77038;SDS011;65970;50.476;4.840;2023-08-17T09:08:42;15.55;;;11.45;;
77038;SDS011;65970;50.476;4.840;2023-08-17T09:13:44;20.10;;;11.07;;
77038;SDS011;65970;50.476;4.840;2023-08-17T09:18:45;17.33;;;10.32;;
77038;SDS011;65970;50.476;4.840;2023-08-17T09:23:50;18.08;;;10.98;;
77038;SDS011;65970;50.476;4.840;2023-08-17T09:28:54;18.65;;;9.93;;
77038;SDS011;65970;50.476;4.840;2023-08-17T09:33:55;15.02;;;10.00;;
77038;SDS011;65970;50.476;4.840;2023-08-17T09:38:55;14.43;;;9.18;;
77038;SDS011;65970;50.476;4.840;2023-08-17T09:43:56;16.10;;;10.30;;
77038;SDS011;65970;50.476;4.840;2023-08-17T09:48:57;15.02;;;10.80;;
77038;SDS011;65970;50.476;4.840;2023-08-17T09:53:57;14.98;;;10.00;;
77038;SDS011;65970;50.476;4.840;2023-08-17T09:58:58;18.30;;;11.52;;
77038;SDS011;65970;50.476;4.840;2023-08-17T10:03:58;17.70;;;11.10;;
77038;SDS011;65970;50.476;4.840;2023-08-17T10:09:00;21.17;;;10.95;;
77038;SDS011;65970;50.476;4.840;2023-08-17T10:14:02;22.17;;;12.75;;
77038;SDS011;65970;50.476;4.840;2023-08-17T10:19:22;20.00;;;12.98;;
77038;SDS011;65970;50.476;4.840;2023-08-17T10:24:41;18.25;;;12.02;;
77038;SDS011;65970;50.476;4.840;2023-08-17T10:29:43;22.03;;;13.73;;
77038;SDS011;65970;50.476;4.840;2023-08-17T10:34:44;19.65;;;11.70;;
77038;SDS011;65970;50.476;4.840;2023-08-17T10:39:46;19.80;;;11.43;;
77038;SDS011;65970;50.476;4.840;2023-08-17T10:44:47;15.10;;;10.23;;
77038;SDS011;65970;50.476;4.840;2023-08-17T10:49:51;22.20;;;12.55;;
77038;SDS011;65970;50.476;4.840;2023-08-17T10:54:59;14.88;;;10.35;;
77038;SDS011;65970;50.476;4.840;2023-08-17T11:05:40;19.00;;;11.25;;
77038;SDS011;65970;50.476;4.840;2023-08-17T11:10:47;18.42;;;11.32;;
77038;SDS011;65970;50.476;4.840;2023-08-17T11:15:59;17.50;;;12.20;;
77038;SDS011;65970;50.476;4.840;2023-08-17T11:21:01;14.23;;;9.20;;
77038;SDS011;65970;50.476;4.840;2023-08-17T11:26:03;18.65;;;11.02;;
77038;SDS011;65970;50.476;4.840;2023-08-17T11:31:05;18.23;;;11.13;;
77038;SDS011;65970;50.476;4.840;2023-08-17T11:36:07;19.67;;;10.20;;
77038;SDS011;65970;50.476;4.840;2023-08-17T11:41:09;20.35;;;10.82;;
77038;SDS011;65970;50.476;4.840;2023-08-17T11:46:11;18.92;;;11.05;;
77038;SDS011;65970;50.476;4.840;2023-08-17T11:51:12;16.83;;;10.55;;
77038;SDS011;65970;50.476;4.840;2023-08-17T11:56:12;19.98;;;11.18;;
77038;SDS011;65970;50.476;4.840;2023-08-17T12:01:13;17.05;;;10.15;;
77038;SDS011;65970;50.476;4.840;2023-08-17T12:06:13;17.98;;;10.57;;
77038;SDS011;65970;50.476;4.840;2023-08-17T12:11:16;14.20;;;9.18;;
77038;SDS011;65970;50.476;4.840;2023-08-17T12:16:17;16.92;;;11.13;;
77038;SDS011;65970;50.476;4.840;2023-08-17T12:21:22;18.13;;;11.13;;
77038;SDS011;65970;50.476;4.840;2023-08-17T12:26:23;18.70;;;11.40;;
77038;SDS011;65970;50.476;4.840;2023-08-17T12:31:24;18.00;;;10.75;;
77038;SDS011;65970;50.476;4.840;2023-08-17T12:36:24;20.55;;;11.05;;
77038;SDS011;65970;50.476;4.840;2023-08-17T12:41:25;18.83;;;10.77;;
77038;SDS011;65970;50.476;4.840;2023-08-17T12:46:25;16.73;;;11.20;;
77038;SDS011;65970;50.476;4.840;2023-08-17T12:51:26;24.13;;;12.65;;
77038;SDS011;65970;50.476;4.840;2023-08-17T12:56:27;17.25;;;10.60;;
77038;SDS011;65970;50.476;4.840;2023-08-17T13:01:27;14.45;;;10.23;;
77038;SDS011;65970;50.476;4.840;2023-08-17T13:06:28;21.13;;;12.25;;
77038;SDS011;65970;50.476;4.840;2023-08-17T13:11:31;18.80;;;12.68;;
77038;SDS011;65970;50.476;4.840;2023-08-17T13:16:31;17.60;;;12.13;;
77038;SDS011;65970;50.476;4.840;2023-08-17T13:21:32;17.80;;;12.00;;
77038;SDS011;65970;50.476;4.840;2023-08-17T13:26:32;18.83;;;12.38;;
77038;SDS011;65970;50.476;4.840;2023-08-17T13:31:33;18.50;;;14.13;;
77038;SDS011;65970;50.476;4.840;2023-08-17T13:36:33;25.50;;;14.02;;
77038;SDS011;65970;50.476;4.840;2023-08-17T13:41:34;21.58;;;13.40;;
77038;SDS011;65970;50.476;4.840;2023-08-17T13:46:35;22.98;;;13.57;;
77038;SDS011;65970;50.476;4.840;2023-08-17T13:51:35;20.38;;;14.07;;
77038;SDS011;65970;50.476;4.840;2023-08-17T13:56:36;20.05;;;15.38;;
77038;SDS011;65970;50.476;4.840;2023-08-17T14:01:36;24.90;;;16.08;;
77038;SDS011;65970;50.476;4.840;2023-08-17T14:06:40;24.52;;;15.77;;
77038;SDS011;65970;50.476;4.840;2023-08-17T14:11:40;23.80;;;15.18;;
77038;SDS011;65970;50.476;4.840;2023-08-17T14:16:41;23.35;;;15.82;;
77038;SDS011;65970;50.476;4.840;2023-08-17T14:21:42;25.98;;;16.23;;
77038;SDS011;65970;50.476;4.840;2023-08-17T14:26:43;26.52;;;17.38;;
77038;SDS011;65970;50.476;4.840;2023-08-17T14:31:43;28.42;;;16.92;;
77038;SDS011;65970;50.476;4.840;2023-08-17T14:36:44;23.73;;;14.75;;
77038;SDS011;65970;50.476;4.840;2023-08-17T14:41:44;21.88;;;14.60;;
77038;SDS011;65970;50.476;4.840;2023-08-17T14:46:45;26.73;;;17.90;;
77038;SDS011;65970;50.476;4.840;2023-08-17T14:51:45;27.13;;;16.92;;
77038;SDS011;65970;50.476;4.840;2023-08-17T14:56:46;22.67;;;16.70;;
77038;SDS011;65970;50.476;4.840;2023-08-17T15:01:46;26.05;;;17.13;;
77038;SDS011;65970;50.476;4.840;2023-08-17T15:06:47;23.55;;;15.88;;
77038;SDS011;65970;50.476;4.840;2023-08-17T15:11:48;24.40;;;16.00;;
77038;SDS011;65970;50.476;4.840;2023-08-17T15:16:48;24.08;;;16.52;;
77038;SDS011;65970;50.476;4.840;2023-08-17T15:21:49;20.45;;;15.30;;
77038;SDS011;65970;50.476;4.840;2023-08-17T15:26:49;19.77;;;15.23;;
77038;SDS011;65970;50.476;4.840;2023-08-17T15:31:50;22.17;;;15.30;;
77038;SDS011;65970;50.476;4.840;2023-08-17T15:36:50;27.17;;;16.52;;
77038;SDS011;65970;50.476;4.840;2023-08-17T15:41:51;22.10;;;15.70;;
77038;SDS011;65970;50.476;4.840;2023-08-17T15:46:55;21.08;;;15.82;;
77038;SDS011;65970;50.476;4.840;2023-08-17T15:51:56;25.45;;;17.92;;
77038;SDS011;65970;50.476;4.840;2023-08-17T15:56:56;26.52;;;18.55;;
77038;SDS011;65970;50.476;4.840;2023-08-17T16:01:57;25.88;;;17.20;;
77038;SDS011;65970;50.476;4.840;2023-08-17T16:06:58;25.63;;;17.02;;
77038;SDS011;65970;50.476;4.840;2023-08-17T16:11:58;27.33;;;16.77;;
77038;SDS011;65970;50.476;4.840;2023-08-17T16:16:59;24.30;;;16.95;;
77038;SDS011;65970;50.476;4.840;2023-08-17T16:21:59;24.27;;;16.42;;
77038;SDS011;65970;50.476;4.840;2023-08-17T16:27:00;22.38;;;16.88;;
77038;SDS011;65970;50.476;4.840;2023-08-17T16:32:01;28.88;;;17.25;;
77038;SDS011;65970;50.476;4.840;2023-08-17T16:37:02;26.58;;;17.52;;
77038;SDS011;65970;50.476;4.840;2023-08-17T16:42:03;24.92;;;15.80;;
77038;SDS011;65970;50.476;4.840;2023-08-17T16:47:04;22.73;;;16.27;;
77038;SDS011;65970;50.476;4.840;2023-08-17T16:52:04;22.08;;;16.23;;
77038;SDS011;65970;50.476;4.840;2023-08-17T16:57:05;23.67;;;15.57;;
77038;SDS011;65970;50.476;4.840;2023-08-17T17:02:06;24.50;;;16.60;;
77038;SDS011;65970;50.476;4.840;2023-08-17T17:07:06;22.42;;;15.77;;
77038;SDS011;65970;50.476;4.840;2023-08-17T17:12:07;19.27;;;16.10;;
77038;SDS011;65970;50.476;4.840;2023-08-17T17:17:07;21.50;;;16.00;;
77038;SDS011;65970;50.476;4.840;2023-08-17T17:22:08;24.50;;;17.13;;
77038;SDS011;65970;50.476;4.840;2023-08-17T17:27:08;27.27;;;18.17;;
77038;SDS011;65970;50.476;4.840;2023-08-17T17:32:09;25.73;;;17.42;;
77038;SDS011;65970;50.476;4.840;2023-08-17T17:37:10;27.17;;;17.65;;
77038;SDS011;65970;50.476;4.840;2023-08-17T17:42:10;28.17;;;18.92;;
77038;SDS011;65970;50.476;4.840;2023-08-17T17:47:11;26.98;;;17.65;;
77038;SDS011;65970;50.476;4.840;2023-08-17T17:52:11;26.63;;;17.63;;
77038;SDS011;65970;50.476;4.840;2023-08-17T17:57:12;25.48;;;17.27;;
77038;SDS011;65970;50.476;4.840;2023-08-17T18:02:12;27.33;;;17.17;;
77038;SDS011;65970;50.476;4.840;2023-08-17T18:07:13;30.42;;;17.75;;
77038;SDS011;65970;50.476;4.840;2023-08-17T18:12:13;23.95;;;17.17;;
77038;SDS011;65970;50.476;4.840;2023-08-17T18:17:14;27.02;;;16.65;;
77038;SDS011;65970;50.476;4.840;2023-08-17T18:22:15;22.95;;;16.58;;
77038;SDS011;65970;50.476;4.840;2023-08-17T18:27:15;26.98;;;16.67;;
77038;SDS011;65970;50.476;4.840;2023-08-17T18:32:16;23.98;;;17.17;;
77038;SDS011;65970;50.476;4.840;2023-08-17T18:37:16;25.05;;;17.67;;
77038;SDS011;65970;50.476;4.840;2023-08-17T18:42:17;29.98;;;20.60;;
77038;SDS011;65970;50.476;4.840;2023-08-17T18:47:17;29.63;;;17.90;;
77038;SDS011;65970;50.476;4.840;2023-08-17T18:52:18;30.25;;;19.40;;
77038;SDS011;65970;50.476;4.840;2023-08-17T18:57:19;33.58;;;21.42;;
77038;SDS011;65970;50.476;4.840;2023-08-17T19:02:19;34.53;;;22.40;;
77038;SDS011;65970;50.476;4.840;2023-08-17T19:07:20;33.25;;;21.95;;
77038;SDS011;65970;50.476;4.840;2023-08-17T19:12:20;33.00;;;22.42;;
77038;SDS011;65970;50.476;4.840;2023-08-17T19:17:21;34.03;;;22.73;;
77038;SDS011;65970;50.476;4.840;2023-08-17T19:22:21;38.60;;;21.70;;
77038;SDS011;65970;50.476;4.840;2023-08-17T19:27:22;37.53;;;23.67;;
77038;SDS011;65970;50.476;4.840;2023-08-17T19:32:23;36.75;;;24.08;;
77038;SDS011;65970;50.476;4.840;2023-08-17T19:37:23;40.50;;;23.13;;
77038;SDS011;65970;50.476;4.840;2023-08-17T19:42:24;38.58;;;23.70;;
77038;SDS011;65970;50.476;4.840;2023-08-17T19:47:24;35.58;;;23.15;;
77038;SDS011;65970;50.476;4.840;2023-08-17T19:52:25;37.60;;;23.73;;
77038;SDS011;65970;50.476;4.840;2023-08-17T19:57:25;39.05;;;23.48;;
77038;SDS011;65970;50.476;4.840;2023-08-17T20:02:26;35.15;;;23.33;;
77038;SDS011;65970;50.476;4.840;2023-08-17T20:07:26;37.22;;;24.20;;
77038;SDS011;65970;50.476;4.840;2023-08-17T20:12:27;34.08;;;22.08;;
77038;SDS011;65970;50.476;4.840;2023-08-17T20:17:28;36.97;;;23.75;;
77038;SDS011;65970;50.476;4.840;2023-08-17T20:22:29;41.08;;;25.55;;
77038;SDS011;65970;50.476;4.840;2023-08-17T20:27:29;43.55;;;25.23;;
77038;SDS011;65970;50.476;4.840;2023-08-17T20:32:30;36.35;;;24.25;;
77038;SDS011;65970;50.476;4.840;2023-08-17T20:37:30;36.78;;;24.98;;
77038;SDS011;65970;50.476;4.840;2023-08-17T20:42:31;38.83;;;24.98;;
77038;SDS011;65970;50.476;4.840;2023-08-17T20:47:31;40.72;;;23.90;;
77038;SDS011;65970;50.476;4.840;2023-08-17T20:52:32;39.05;;;24.25;;
77038;SDS011;65970;50.476;4.840;2023-08-17T20:57:32;42.60;;;26.25;;
77038;SDS011;65970;50.476;4.840;2023-08-17T21:02:33;40.20;;;24.40;;
77038;SDS011;65970;50.476;4.840;2023-08-17T21:07:34;40.72;;;25.38;;
77038;SDS011;65970;50.476;4.840;2023-08-17T21:12:34;40.42;;;24.05;;
77038;SDS011;65970;50.476;4.840;2023-08-17T21:17:35;41.40;;;25.83;;
77038;SDS011;65970;50.476;4.840;2023-08-17T21:22:37;38.30;;;23.30;;
77038;SDS011;65970;50.476;4.840;2023-08-17T21:27:38;38.35;;;23.92;;
77038;SDS011;65970;50.476;4.840;2023-08-17T21:32:38;38.15;;;23.15;;
77038;SDS011;65970;50.476;4.840;2023-08-17T21:37:39;36.78;;;22.90;;
77038;SDS011;65970;50.476;4.840;2023-08-17T21:42:40;35.00;;;20.65;;
77038;SDS011;65970;50.476;4.840;2023-08-17T21:47:40;37.00;;;23.15;;
77038;SDS011;65970;50.476;4.840;2023-08-17T21:52:41;43.05;;;24.90;;
77038;SDS011;65970;50.476;4.840;2023-08-17T21:57:41;40.90;;;25.50;;
77038;SDS011;65970;50.476;4.840;2023-08-17T22:02:42;37.58;;;22.52;;
77038;SDS011;65970;50.476;4.840;2023-08-17T22:07:42;33.85;;;22.77;;
77038;SDS011;65970;50.476;4.840;2023-08-17T22:12:43;37.03;;;23.67;;
77038;SDS011;65970;50.476;4.840;2023-08-17T22:17:43;37.05;;;23.77;;
77038;SDS011;65970;50.476;4.840;2023-08-17T22:22:44;34.72;;;23.73;;
77038;SDS011;65970;50.476;4.840;2023-08-17T22:27:45;34.22;;;22.95;;
77038;SDS011;65970;50.476;4.840;2023-08-17T22:32:46;37.28;;;23.98;;
77038;SDS011;65970;50.476;4.840;2023-08-17T22:37:46;34.75;;;21.88;;
77038;SDS011;65970;50.476;4.840;2023-08-17T22:42:47;41.33;;;23.58;;
77038;SDS011;65970;50.476;4.840;2023-08-17T22:47:47;34.88;;;21.58;;
77038;SDS011;65970;50.476;4.840;2023-08-17T22:52:48;37.58;;;22.40;;
77038;SDS011;65970;50.476;4.840;2023-08-17T22:57:48;33.78;;;22.52;;
77038;SDS011;65970;50.476;4.840;2023-08-17T23:02:49;33.20;;;21.13;;
77038;SDS011;65970;50.476;4.840;2023-08-17T23:07:49;37.08;;;22.30;;
77038;SDS011;65970;50.476;4.840;2023-08-17T23:12:50;35.97;;;22.05;;
77038;SDS011;65970;50.476;4.840;2023-08-17T23:17:51;42.38;;;23.67;;
77038;SDS011;65970;50.476;4.840;2023-08-17T23:22:51;32.88;;;21.75;;
77038;SDS011;65970;50.476;4.840;2023-08-17T23:27:52;40.35;;;22.92;;
77038;SDS011;65970;50.476;4.840;2023-08-17T23:32:52;36.22;;;23.05;;
77038;SDS011;65970;50.476;4.840;2023-08-17T23:37:53;42.35;;;24.58;;
77038;SDS011;65970;50.476;4.840;2023-08-17T23:42:53;34.42;;;21.65;;
77038;SDS011;65970;50.476;4.840;2023-08-17T23:47:54;33.67;;;20.92;;
77038;SDS011;65970;50.476;4.840;2023-08-17T23:52:54;35.53;;;21.08;;
77038;SDS011;65970;50.476;4.840;2023-08-17T23:57:55;33.90;;;21.08;;
